Time;durP1;ratioP1;P1;durP2;ratioP2;P2;SDS_P1;SDS_P2;PMS_P1;PMS_P2;Temp;Humidity;BMP_temperature;BMP_pressure;BME280_temperature;BME280_humidity;BME280_pressure;Samples;Min_cycle;Max_cycle;Signal;HPM_P1;HPM_P2
2022/08/20 00:00:49;;;;;;;2.55;1.12;;;23.00;57.40;;;;;;2318211;55;20959;-71
2022/08/20 00:03:17;;;;;;;2.37;1.30;;;23.00;57.50;;;;;;2310891;55;21023;-71
2022/08/20 00:05:53;;;;;;;2.33;1.15;;;22.90;57.50;;;;;;2311094;55;21187;-71
2022/08/20 00:08:20;;;;;;;2.30;1.20;;;22.90;57.70;;;;;;2311288;55;20967;-74
2022/08/20 00:10:47;;;;;;;2.50;1.30;;;22.90;57.60;;;;;;2325482;54;21002;-71
2022/08/20 00:13:17;;;;;;;1.98;1.10;;;22.90;57.60;;;;;;2302393;54;20995;-75
2022/08/20 00:15:44;;;;;;;3.28;1.33;;;22.90;57.70;;;;;;2311877;55;21043;-71
2022/08/20 00:18:10;;;;;;;1.95;1.00;;;22.90;57.70;;;;;;2438840;54;20991;-73
2022/08/20 00:20:39;;;;;;;2.62;1.40;;;22.80;57.60;;;;;;2316753;55;21000;-71
2022/08/20 00:23:06;;;;;;;2.55;1.25;;;22.80;57.70;;;;;;2312390;55;20991;-73
2022/08/20 00:25:35;;;;;;;2.85;1.50;;;22.80;57.80;;;;;;2310751;55;20959;-73
2022/08/20 00:28:02;;;;;;;2.50;1.48;;;22.80;57.80;;;;;;2363403;54;21452;-71
2022/08/20 00:30:31;;;;;;;3.00;1.60;;;22.80;58.00;;;;;;2416460;54;21070;-70
2022/08/20 00:33:03;;;;;;;3.47;1.50;;;22.80;58.00;;;;;;2314329;55;20935;-73
2022/08/20 00:35:31;;;;;;;2.92;1.62;;;22.80;58.10;;;;;;2314687;55;21506;-75
2022/08/20 00:37:57;;;;;;;3.20;1.40;;;22.80;58.00;;;;;;2313245;55;22043;-71
2022/08/20 00:40:31;;;;;;;3.65;1.10;;;22.80;58.10;;;;;;2310220;55;21006;-72
2022/08/20 00:42:58;;;;;;;3.78;1.25;;;22.80;58.10;;;;;;2311492;55;21226;-71
2022/08/20 00:45:26;;;;;;;2.22;1.20;;;22.80;58.10;;;;;;2310796;55;20959;-72
2022/08/20 00:47:56;;;;;;;2.60;1.30;;;22.80;58.10;;;;;;2358453;54;20911;-72
2022/08/20 00:50:25;;;;;;;2.40;1.20;;;22.80;58.10;;;;;;2296791;55;21070;-72
2022/08/20 00:52:52;;;;;;;2.90;1.65;;;22.80;58.20;;;;;;2312144;55;20999;-72
2022/08/20 00:55:20;;;;;;;2.70;1.40;;;22.80;58.30;;;;;;2318002;55;21401;-72
2022/08/20 00:57:53;;;;;;;2.42;1.30;;;22.80;58.40;;;;;;2310858;55;21940;-75
2022/08/20 01:00:43;;;;;;;2.42;1.20;;;22.80;58.40;;;;;;2420332;54;21102;-70
2022/08/20 01:03:12;;;;;;;3.03;1.23;;;22.80;58.40;;;;;;2383857;54;21002;-74
2022/08/20 01:05:39;;;;;;;1.90;1.00;;;22.80;58.30;;;;;;2327830;54;20987;-72
2022/08/20 01:08:05;;;;;;;2.42;1.05;;;22.90;58.40;;;;;;2312196;55;20951;-71
2022/08/20 01:10:34;;;;;;;2.20;1.17;;;22.90;58.40;;;;;;2317367;55;21028;-71
2022/08/20 01:13:07;;;;;;;3.03;1.55;;;22.90;58.50;;;;;;2369910;54;20997;-74
2022/08/20 01:15:34;;;;;;;2.90;1.50;;;22.90;58.50;;;;;;2310995;55;20979;-72
2022/08/20 01:18:00;;;;;;;3.45;1.60;;;22.90;58.60;;;;;;2311835;55;20939;-72
2022/08/20 01:20:30;;;;;;;2.60;1.30;;;22.90;58.60;;;;;;2310494;55;20951;-72
2022/08/20 01:23:26;;;;;;;3.15;1.40;;;22.90;58.70;;;;;;2311501;55;21357;-72
2022/08/20 01:32:40;;;;;;;2.72;1.45;;;22.90;58.80;;;;;;2318460;55;20895;-71
2022/08/20 01:35:10;;;;;;;1.75;0.85;;;23.00;58.50;;;;;;2317542;55;21412;-72
2022/08/20 01:37:36;;;;;;;2.60;1.20;;;23.00;58.40;;;;;;2308556;55;21011;-72
2022/08/20 01:40:03;;;;;;;2.97;1.20;;;23.00;59.10;;;;;;2320314;54;21083;-74
2022/08/20 01:42:33;;;;;;;2.90;1.42;;;23.00;58.60;;;;;;2311819;54;20952;-72
2022/08/20 01:45:00;;;;;;;2.40;1.30;;;23.00;58.70;;;;;;2327442;54;20951;-72
2022/08/20 01:47:30;;;;;;;2.42;1.52;;;23.00;58.70;;;;;;2416142;54;21564;-73
2022/08/20 01:50:04;;;;;;;2.40;1.40;;;23.00;58.80;;;;;;2312944;55;20931;-73
2022/08/20 01:53:05;;;;;;;3.15;1.23;;;23.00;58.90;;;;;;2314755;55;21011;-74
2022/08/20 01:55:36;;;;;;;2.87;1.40;;;23.10;59.10;;;;;;2315766;54;20963;-72
2022/08/20 01:58:02;;;;;;;3.47;1.75;;;23.10;58.90;;;;;;2367042;54;20947;-74
2022/08/20 02:00:28;;;;;;;2.55;1.40;;;23.10;59.00;;;;;;2317882;55;20935;-72
2022/08/20 02:02:55;;;;;;;2.33;1.20;;;23.10;59.00;;;;;;2311540;55;20958;-72
2022/08/20 02:05:21;;;;;;;2.22;1.20;;;23.10;59.00;;;;;;2311623;55;21003;-72
2022/08/20 02:07:47;;;;;;;2.60;1.42;;;23.20;59.00;;;;;;2311810;55;20975;-71
2022/08/20 02:10:15;;;;;;;2.70;1.48;;;23.20;59.00;;;;;;2312602;55;20987;-72
2022/08/20 02:12:42;;;;;;;4.00;1.83;;;23.20;59.00;;;;;;2312863;55;21038;-74
2022/08/20 02:15:11;;;;;;;4.10;1.65;;;23.20;59.00;;;;;;2311581;55;21567;-72
2022/08/20 02:17:38;;;;;;;2.70;1.50;;;23.20;59.00;;;;;;2312010;55;20943;-72
2022/08/20 02:20:10;;;;;;;2.40;1.30;;;23.20;59.00;;;;;;2311494;55;20978;-73
2022/08/20 02:22:46;;;;;;;2.25;1.23;;;23.30;59.20;;;;;;2316005;55;20971;-72
2022/08/20 02:25:12;;;;;;;2.30;1.30;;;23.30;59.20;;;;;;2303978;55;20918;-75
2022/08/20 02:27:40;;;;;;;2.33;1.30;;;23.30;59.10;;;;;;2318678;54;20939;-74
2022/08/20 02:30:12;;;;;;;2.42;1.37;;;23.30;59.10;;;;;;2306565;54;20951;-74
2022/08/20 02:32:38;;;;;;;3.45;1.67;;;23.30;59.20;;;;;;2424492;54;20927;-72
2022/08/20 02:35:07;;;;;;;2.50;1.42;;;23.40;59.20;;;;;;2311080;55;20951;-73
2022/08/20 02:37:40;;;;;;;5.05;1.50;;;23.40;59.20;;;;;;2311460;55;20931;-72
2022/08/20 02:40:08;;;;;;;3.37;1.60;;;23.40;59.30;;;;;;2310703;55;20995;-72
2022/08/20 02:42:34;;;;;;;2.58;1.55;;;23.40;59.20;;;;;;2541344;54;21518;-72
2022/08/20 02:45:04;;;;;;;2.70;1.42;;;23.40;59.30;;;;;;2312264;55;21058;-74
2022/08/20 02:47:31;;;;;;;2.80;1.55;;;23.40;59.20;;;;;;2538680;53;20998;-72
2022/08/20 02:49:58;;;;;;;2.95;1.52;;;23.40;59.20;;;;;;2394030;54;20935;-74
2022/08/20 02:52:27;;;;;;;2.58;1.50;;;23.50;59.20;;;;;;2311703;55;20986;-73
2022/08/20 02:54:54;;;;;;;2.72;1.70;;;23.40;59.10;;;;;;2316812;55;20948;-72
2022/08/20 02:57:20;;;;;;;3.30;1.67;;;23.50;59.20;;;;;;2311916;55;20955;-72
2022/08/20 02:59:46;;;;;;;2.40;1.40;;;23.50;59.20;;;;;;2551591;54;20970;-75
2022/08/20 03:02:13;;;;;;;2.60;1.50;;;23.50;59.30;;;;;;2312159;55;21459;-74
2022/08/20 03:04:40;;;;;;;2.80;1.70;;;23.50;59.30;;;;;;2329733;54;21004;-72
2022/08/20 03:07:06;;;;;;;2.92;1.50;;;23.50;59.30;;;;;;2310796;55;20951;-75
2022/08/20 03:09:32;;;;;;;2.85;1.65;;;23.50;59.20;;;;;;2311440;55;20951;-73
2022/08/20 03:11:59;;;;;;;3.62;1.80;;;23.50;59.20;;;;;;2507382;54;20975;-74
2022/08/20 03:14:25;;;;;;;2.87;1.75;;;23.50;59.20;;;;;;2301753;55;21897;-71
2022/08/20 03:16:52;;;;;;;2.65;1.62;;;23.50;59.20;;;;;;2310797;55;21054;-72
2022/08/20 03:19:18;;;;;;;3.10;1.80;;;23.50;59.20;;;;;;2310877;55;20939;-72
2022/08/20 03:21:44;;;;;;;2.90;1.70;;;23.50;59.20;;;;;;2550995;54;20939;-73
2022/08/20 03:24:11;;;;;;;4.37;1.67;;;23.60;59.30;;;;;;2311264;55;20935;-72
2022/08/20 03:26:37;;;;;;;3.62;1.65;;;23.60;59.30;;;;;;2310885;55;20995;-72
2022/08/20 03:29:03;;;;;;;3.08;1.77;;;23.60;59.30;;;;;;2311506;55;20975;-73
2022/08/20 03:31:30;;;;;;;2.55;1.60;;;23.60;59.30;;;;;;2346935;54;20943;-71
2022/08/20 03:33:56;;;;;;;3.20;1.52;;;23.60;59.30;;;;;;2311266;55;20939;-72
2022/08/20 03:36:24;;;;;;;2.90;1.58;;;23.60;59.30;;;;;;2295735;55;20955;-72
2022/08/20 03:38:50;;;;;;;3.42;2.00;;;23.60;59.30;;;;;;2311138;55;21003;-73
2022/08/20 03:41:17;;;;;;;4.47;1.83;;;23.60;59.30;;;;;;2311502;55;21000;-72
2022/08/20 03:43:44;;;;;;;3.30;1.90;;;23.60;59.30;;;;;;2401525;54;20963;-72
2022/08/20 03:46:10;;;;;;;3.10;1.52;;;23.60;59.30;;;;;;2312150;55;21416;-75
2022/08/20 03:48:37;;;;;;;3.00;1.70;;;23.60;59.30;;;;;;2311231;55;20927;-72
2022/08/20 03:51:03;;;;;;;3.12;1.70;;;23.60;59.30;;;;;;2311178;55;20932;-75
2022/08/20 03:53:30;;;;;;;2.87;1.58;;;23.60;59.30;;;;;;2310758;55;20952;-72
2022/08/20 03:55:59;;;;;;;3.60;1.52;;;23.60;59.30;;;;;;2311278;55;21399;-72
2022/08/20 03:58:27;;;;;;;4.35;1.90;;;23.60;59.30;;;;;;2312235;55;21031;-72
2022/08/20 04:00:56;;;;;;;3.10;1.58;;;23.60;59.30;;;;;;2298893;55;21008;-72
2022/08/20 04:03:22;;;;;;;3.47;1.50;;;23.60;59.30;;;;;;2313472;55;20924;-72
2022/08/20 04:05:49;;;;;;;2.92;1.70;;;23.60;59.30;;;;;;2318124;54;20951;-72
2022/08/20 04:08:22;;;;;;;3.58;1.70;;;23.60;59.20;;;;;;2359287;54;21002;-71
2022/08/20 04:10:49;;;;;;;3.42;1.95;;;23.70;59.40;;;;;;2311149;55;20955;-71
2022/08/20 04:13:16;;;;;;;4.15;1.75;;;23.60;59.30;;;;;;2315440;55;20939;-72
2022/08/20 04:15:44;;;;;;;3.30;2.10;;;23.60;59.30;;;;;;2314077;55;20978;-73
2022/08/20 04:18:10;;;;;;;3.12;1.90;;;23.70;59.40;;;;;;2316781;55;20903;-72
2022/08/20 04:20:37;;;;;;;3.60;1.90;;;23.70;59.40;;;;;;2306126;55;20985;-72
2022/08/20 04:23:04;;;;;;;3.95;2.35;;;23.70;59.40;;;;;;2314914;54;20979;-74
2022/08/20 04:25:31;;;;;;;4.35;1.90;;;23.70;59.40;;;;;;2316720;55;21456;-76
2022/08/20 04:27:59;;;;;;;3.10;1.45;;;23.70;59.40;;;;;;2313391;54;21011;-72
2022/08/20 04:30:25;;;;;;;2.87;1.80;;;23.70;59.40;;;;;;2311653;55;20907;-71
2022/08/20 04:32:53;;;;;;;4.95;2.10;;;23.70;59.40;;;;;;2310827;55;20967;-72
2022/08/20 04:35:19;;;;;;;4.37;2.00;;;23.70;59.50;;;;;;2310661;55;20971;-72
2022/08/20 04:37:46;;;;;;;4.80;2.00;;;23.70;59.50;;;;;;2311168;55;20931;-72
2022/08/20 04:43:03;;;;;;;3.58;1.90;;;23.70;59.40;;;;;;2310910;55;20927;-72
2022/08/20 04:45:33;;;;;;;2.95;1.65;;;23.80;59.50;;;;;;2350860;54;20972;-76
2022/08/20 04:48:04;;;;;;;3.08;1.87;;;23.70;59.30;;;;;;2295817;55;20991;-71
2022/08/20 04:50:34;;;;;;;2.72;1.75;;;23.70;59.40;;;;;;2300846;54;21067;-71
2022/08/20 04:53:06;;;;;;;2.70;1.30;;;23.70;59.30;;;;;;2311028;55;20939;-71
2022/08/20 04:55:32;;;;;;;2.87;1.62;;;23.70;59.30;;;;;;2295584;55;20971;-72
2022/08/20 04:58:04;;;;;;;2.55;1.45;;;23.80;59.50;;;;;;2312317;55;20983;-73
2022/08/20 05:00:30;;;;;;;3.58;1.60;;;23.80;59.50;;;;;;2311654;55;20995;-71
2022/08/20 05:02:57;;;;;;;2.67;1.40;;;23.80;59.40;;;;;;2328957;54;21642;-71
2022/08/20 05:05:23;;;;;;;3.97;1.85;;;23.80;59.40;;;;;;2311963;55;21800;-74
2022/08/20 05:07:52;;;;;;;3.22;1.60;;;23.80;59.40;;;;;;2312102;55;21451;-71
2022/08/20 05:10:20;;;;;;;3.22;2.03;;;23.80;59.40;;;;;;2311572;54;20951;-73
2022/08/20 05:12:47;;;;;;;3.40;2.12;;;23.80;59.50;;;;;;2311882;55;21027;-71
2022/08/20 05:15:16;;;;;;;3.15;1.80;;;23.80;59.60;;;;;;2311191;55;21054;-71
2022/08/20 05:17:45;;;;;;;3.53;1.50;;;23.80;59.60;;;;;;2310940;55;21030;-72
2022/08/20 05:20:15;;;;;;;2.65;1.50;;;23.80;59.60;;;;;;2315381;55;21034;-71
2022/08/20 05:22:42;;;;;;;3.22;1.50;;;23.80;59.60;;;;;;2313163;55;20940;-71
2022/08/20 05:25:08;;;;;;;3.92;1.95;;;23.80;59.50;;;;;;2319048;54;21035;-71
2022/08/20 05:27:35;;;;;;;3.50;1.80;;;23.80;59.60;;;;;;2297887;54;21331;-72
2022/08/20 05:30:06;;;;;;;2.80;1.73;;;23.80;59.60;;;;;;2317560;54;21067;-71
2022/08/20 05:32:32;;;;;;;3.00;2.00;;;23.80;59.60;;;;;;2306551;55;21549;-71
2022/08/20 05:35:00;;;;;;;2.90;1.87;;;23.80;59.60;;;;;;2309663;54;20959;-71
2022/08/20 05:37:29;;;;;;;3.35;2.08;;;23.80;59.60;;;;;;2369809;54;20964;-71
2022/08/20 05:40:01;;;;;;;4.37;2.40;;;23.80;59.70;;;;;;2311931;55;20990;-74
2022/08/20 05:42:27;;;;;;;4.10;2.78;;;23.80;59.80;;;;;;2311295;55;20955;-71
2022/08/20 05:44:54;;;;;;;3.97;2.53;;;23.80;59.70;;;;;;2492752;53;21019;-71
2022/08/20 05:47:26;;;;;;;4.25;2.83;;;23.90;59.90;;;;;;2311374;55;21030;-71
2022/08/20 05:49:52;;;;;;;5.55;2.67;;;23.90;60.00;;;;;;2311999;55;20951;-71
2022/08/20 05:52:19;;;;;;;4.05;2.80;;;23.90;60.00;;;;;;2310942;55;20939;-72
2022/08/20 05:54:45;;;;;;;3.95;2.55;;;23.90;60.00;;;;;;2314926;55;21755;-74
2022/08/20 05:57:12;;;;;;;3.70;2.45;;;23.90;60.00;;;;;;2313509;55;20953;-73
2022/08/20 05:59:39;;;;;;;4.40;2.90;;;23.90;60.00;;;;;;2311945;55;20974;-71
2022/08/20 06:04:23;;;;;;;3.90;2.62;;;23.90;60.00;;;;;;2373831;54;21430;-71
2022/08/20 06:07:08;;;;;;;3.37;2.17;;;23.90;60.10;;;;;;2500661;54;20938;-71
2022/08/20 06:09:35;;;;;;;3.15;1.80;;;23.90;60.20;;;;;;2311990;55;20936;-72
2022/08/20 06:12:02;;;;;;;4.22;2.70;;;23.90;60.00;;;;;;2332870;54;21480;-69
2022/08/20 06:14:29;;;;;;;3.12;1.95;;;23.90;60.20;;;;;;2526723;54;20967;-70
2022/08/20 06:17:08;;;;;;;2.72;1.83;;;23.90;60.20;;;;;;2311444;55;20947;-73
2022/08/20 06:19:34;;;;;;;3.70;2.12;;;23.90;60.40;;;;;;2310823;55;21022;-73
2022/08/20 06:22:03;;;;;;;3.40;2.08;;;23.90;60.40;;;;;;2311365;55;20943;-71
2022/08/20 06:24:29;;;;;;;3.67;2.58;;;23.90;60.40;;;;;;2393698;54;21698;-70
2022/08/20 06:26:56;;;;;;;4.72;2.70;;;23.90;60.50;;;;;;2427789;54;21042;-70
2022/08/20 06:29:22;;;;;;;3.97;2.45;;;23.90;60.60;;;;;;2313727;55;20959;-70
2022/08/20 06:31:50;;;;;;;3.83;2.47;;;23.90;60.60;;;;;;2320837;54;20940;-70
2022/08/20 06:34:17;;;;;;;5.30;2.50;;;23.90;60.60;;;;;;2311487;54;20960;-71
2022/08/20 06:36:47;;;;;;;3.25;2.15;;;23.80;60.50;;;;;;2313077;55;21367;-70
2022/08/20 06:39:13;;;;;;;3.90;2.50;;;23.80;60.60;;;;;;2311690;55;21010;-69
2022/08/20 06:41:40;;;;;;;4.25;2.22;;;23.80;60.70;;;;;;2312261;55;21487;-69
2022/08/20 06:44:06;;;;;;;4.00;2.40;;;23.80;60.70;;;;;;2550970;54;20995;-69
2022/08/20 06:46:34;;;;;;;4.00;2.50;;;23.80;60.80;;;;;;2477880;54;20939;-69
2022/08/20 06:49:02;;;;;;;3.42;2.22;;;23.80;60.90;;;;;;2318615;55;20920;-69
2022/08/20 06:51:31;;;;;;;3.30;1.90;;;23.80;61.00;;;;;;2311150;55;20975;-68
2022/08/20 06:53:57;;;;;;;4.10;2.25;;;23.80;61.00;;;;;;2310954;55;20939;-69
2022/08/20 06:56:24;;;;;;;3.67;2.30;;;23.80;61.10;;;;;;2316711;55;21761;-70
2022/08/20 06:58:50;;;;;;;3.28;2.00;;;23.80;61.20;;;;;;2312230;55;21381;-71
2022/08/20 07:01:20;;;;;;;3.65;2.30;;;23.70;61.20;;;;;;2310696;55;20943;-69
2022/08/20 07:03:47;;;;;;;3.40;2.05;;;23.70;61.30;;;;;;2311678;55;21483;-70
2022/08/20 07:06:14;;;;;;;3.45;2.30;;;23.70;61.30;;;;;;2325191;54;20987;-70
2022/08/20 07:08:43;;;;;;;3.62;2.28;;;23.70;61.30;;;;;;2307014;54;20976;-72
2022/08/20 07:11:11;;;;;;;3.95;1.95;;;23.70;61.40;;;;;;2300813;54;21005;-73
2022/08/20 07:13:37;;;;;;;2.97;1.73;;;23.70;61.50;;;;;;2311511;55;21469;-72
2022/08/20 07:16:06;;;;;;;3.95;2.00;;;23.70;61.60;;;;;;2307614;55;21811;-70
2022/08/20 07:18:32;;;;;;;3.35;2.15;;;23.70;61.80;;;;;;2307477;54;20983;-69
2022/08/20 07:20:59;;;;;;;4.03;2.10;;;23.70;61.70;;;;;;2314964;55;20955;-70
2022/08/20 07:23:25;;;;;;;4.10;2.50;;;23.70;61.70;;;;;;2323756;55;21003;-70
2022/08/20 07:25:55;;;;;;;3.92;1.87;;;23.70;61.90;;;;;;2313323;54;21666;-70
2022/08/20 07:28:22;;;;;;;3.50;1.92;;;23.70;61.90;;;;;;2314669;55;20991;-73
2022/08/20 07:33:34;;;;;;;4.20;1.90;;;23.70;62.00;;;;;;2317032;55;21441;-70
2022/08/20 07:36:02;;;;;;;3.75;2.25;;;23.70;62.00;;;;;;2312077;54;20962;-71
2022/08/20 07:38:29;;;;;;;3.28;1.92;;;23.70;62.10;;;;;;2313321;54;20976;-69
2022/08/20 07:40:57;;;;;;;4.18;2.40;;;23.70;62.20;;;;;;2311608;54;21067;-69
2022/08/20 07:43:24;;;;;;;3.30;2.20;;;23.80;62.40;;;;;;2310782;54;21779;-70
2022/08/20 07:45:54;;;;;;;3.25;2.03;;;23.80;62.40;;;;;;2350548;54;20950;-70
2022/08/20 07:48:20;;;;;;;3.20;1.95;;;23.80;62.40;;;;;;2321627;54;21901;-71
2022/08/20 07:50:48;;;;;;;3.72;1.95;;;23.80;62.40;;;;;;2304270;54;20968;-70
2022/08/20 07:53:15;;;;;;;4.15;2.28;;;23.80;62.40;;;;;;2327356;54;20978;-70
2022/08/20 07:55:43;;;;;;;3.28;2.08;;;23.80;62.60;;;;;;2312131;55;20970;-71
2022/08/20 07:58:11;;;;;;;3.85;2.08;;;23.80;62.70;;;;;;2319756;55;21038;-70
2022/08/20 08:00:37;;;;;;;3.40;2.03;;;23.90;62.80;;;;;;2311521;54;21001;-69
2022/08/20 08:03:08;;;;;;;3.12;1.83;;;23.90;62.70;;;;;;2450377;54;21000;-69
2022/08/20 08:05:37;;;;;;;3.65;2.30;;;23.90;62.70;;;;;;2315241;54;20947;-69
2022/08/20 08:08:09;;;;;;;3.30;1.83;;;23.90;62.70;;;;;;2312546;54;21007;-70
2022/08/20 08:10:36;;;;;;;3.75;2.20;;;23.90;62.80;;;;;;2316493;55;21051;-70
2022/08/20 08:13:05;;;;;;;3.42;1.80;;;24.00;62.80;;;;;;2310208;54;21039;-70
2022/08/20 08:15:35;;;;;;;3.20;1.73;;;24.00;62.80;;;;;;2319730;54;21345;-70
2022/08/20 08:18:06;;;;;;;3.55;1.80;;;24.00;62.60;;;;;;2347804;54;26411;-71
2022/08/20 08:20:39;;;;;;;3.47;1.77;;;24.00;62.80;;;;;;2301890;55;21688;-71
2022/08/20 08:23:06;;;;;;;;;;;24.10;62.80;;;;;;2313608;55;21223;-71
2022/08/20 08:25:33;;;;;;;2.65;1.30;;;24.10;62.80;;;;;;2309245;55;20079;-71
2022/08/20 08:27:59;;;;;;;3.25;1.30;;;24.20;62.50;;;;;;2316566;54;20967;-71
2022/08/20 08:30:27;;;;;;;2.28;1.20;;;24.10;62.40;;;;;;2300515;55;20962;-70
2022/08/20 08:35:39;;;;;;;2.30;1.10;;;24.10;62.20;;;;;;2313056;55;20927;-70
2022/08/20 08:38:05;;;;;;;2.50;1.48;;;24.10;62.10;;;;;;2309224;55;20998;-71
2022/08/20 08:40:32;;;;;;;2.33;1.12;;;24.10;62.20;;;;;;2315476;54;21030;-73
2022/08/20 08:43:01;;;;;;;2.20;1.08;;;24.10;62.20;;;;;;2351719;54;21006;-72
2022/08/20 08:45:33;;;;;;;2.20;0.90;;;24.20;62.30;;;;;;2315117;55;20985;-70
2022/08/20 08:47:59;;;;;;;3.03;1.35;;;24.20;62.40;;;;;;2313663;55;20903;-73
2022/08/20 08:50:29;;;;;;;3.05;1.48;;;24.20;62.40;;;;;;2309687;55;21836;-70
2022/08/20 08:53:14;;;;;;;3.20;1.62;;;24.20;62.60;;;;;;2310623;55;20939;-71
2022/08/20 08:55:40;;;;;;;2.62;1.33;;;24.20;62.60;;;;;;2311101;55;21526;-71
2022/08/20 08:58:09;;;;;;;2.40;1.20;;;24.20;62.60;;;;;;2310890;55;21392;-71
2022/08/20 09:00:35;;;;;;;2.58;1.35;;;24.20;62.60;;;;;;2311446;55;20951;-71
2022/08/20 09:03:09;;;;;;;2.47;1.33;;;24.20;62.60;;;;;;2311293;55;21106;-71
2022/08/20 09:05:45;;;;;;;4.68;1.50;;;24.20;62.80;;;;;;2534116;53;20991;-68
2022/08/20 09:08:51;;;;;;;2.78;1.30;;;24.20;62.80;;;;;;2311618;55;20971;-69
2022/08/20 09:11:20;;;;;;;2.25;1.20;;;24.30;63.20;;;;;;2363044;54;20939;-70
2022/08/20 09:13:47;;;;;;;2.70;1.27;;;24.30;62.90;;;;;;2311919;55;20908;-71
2022/08/20 09:16:15;;;;;;;2.45;1.30;;;24.30;62.80;;;;;;2317669;54;21038;-70
2022/08/20 09:18:42;;;;;;;2.22;1.15;;;24.30;62.90;;;;;;2313048;55;21003;-72
2022/08/20 09:21:09;;;;;;;2.17;1.10;;;24.30;62.90;;;;;;2313286;55;21050;-72
2022/08/20 09:23:35;;;;;;;2.40;1.15;;;24.30;62.90;;;;;;2316337;55;20915;-70
2022/08/20 09:26:02;;;;;;;2.35;1.20;;;24.30;62.90;;;;;;2441812;54;20923;-71
2022/08/20 09:28:28;;;;;;;2.00;1.00;;;24.30;63.00;;;;;;2406397;54;21831;-71
2022/08/20 09:30:55;;;;;;;2.12;1.02;;;24.40;63.10;;;;;;2405164;54;20947;-71
2022/08/20 09:33:22;;;;;;;1.80;1.00;;;24.40;63.10;;;;;;2329966;54;20971;-71
2022/08/20 09:35:48;;;;;;;1.75;0.80;;;24.40;63.00;;;;;;2314527;55;20993;-71
2022/08/20 09:38:15;;;;;;;1.83;0.90;;;24.50;63.20;;;;;;2322759;54;21021;-71
2022/08/20 09:40:41;;;;;;;1.92;1.02;;;24.40;63.10;;;;;;2309303;55;20966;-71
2022/08/20 09:43:08;;;;;;;2.95;1.10;;;24.40;63.10;;;;;;2310724;55;20947;-70
2022/08/20 09:45:34;;;;;;;2.28;1.17;;;24.50;63.10;;;;;;2316384;55;20995;-70
2022/08/20 09:48:01;;;;;;;2.10;1.10;;;24.50;63.10;;;;;;2411774;54;20938;-71
2022/08/20 09:50:28;;;;;;;2.47;1.33;;;24.50;63.30;;;;;;2354336;54;20991;-70
2022/08/20 09:52:55;;;;;;;2.60;1.20;;;24.60;63.40;;;;;;2364364;55;20967;-70
2022/08/20 09:55:30;;;;;;;2.53;1.37;;;24.60;63.50;;;;;;2314533;54;20970;-71
2022/08/20 09:58:05;;;;;;;2.35;1.20;;;24.60;63.70;;;;;;2313351;55;20971;-72
2022/08/20 10:00:31;;;;;;;2.15;1.00;;;24.70;63.80;;;;;;2310902;55;21095;-70
2022/08/20 10:02:59;;;;;;;1.90;0.90;;;24.80;64.00;;;;;;2309276;55;21003;-71
2022/08/20 10:05:26;;;;;;;3.83;1.10;;;24.80;63.90;;;;;;2310728;55;20939;-70
2022/08/20 10:07:53;;;;;;;2.03;1.00;;;24.90;64.10;;;;;;2314919;55;20960;-71
2022/08/20 10:10:19;;;;;;;2.70;1.10;;;25.00;64.00;;;;;;2311477;55;20954;-73
2022/08/20 10:12:46;;;;;;;1.95;0.80;;;25.00;63.80;;;;;;2317094;55;20943;-71
2022/08/20 10:15:14;;;;;;;2.92;1.30;;;25.10;63.80;;;;;;2299781;55;20953;-70
2022/08/20 10:21:18;;;;;;;2.22;1.20;;;25.30;63.80;;;;;;2302602;55;21393;-72
2022/08/20 10:23:45;;;;;;;1.58;0.73;;;25.40;63.10;;;;;;2308767;55;20971;-71
2022/08/20 10:26:12;;;;;;;1.80;0.80;;;25.40;62.90;;;;;;2309060;55;20995;-70
2022/08/20 10:28:38;;;;;;;2.05;0.88;;;25.50;62.80;;;;;;2434947;54;21535;-70
2022/08/20 10:34:32;;;;;;;1.70;0.82;;;25.60;62.40;;;;;;2340539;54;21075;-71
2022/08/20 10:36:59;;;;;;;1.70;0.73;;;25.70;62.30;;;;;;2315348;55;20955;-72
2022/08/20 10:39:25;;;;;;;1.98;0.95;;;25.70;62.20;;;;;;2330954;54;20971;-73
2022/08/20 10:41:52;;;;;;;1.92;0.90;;;25.80;62.10;;;;;;2300357;54;21789;-72
2022/08/20 10:44:18;;;;;;;2.50;1.10;;;25.80;62.00;;;;;;2307446;55;20931;-72
2022/08/20 10:46:47;;;;;;;1.85;1.00;;;25.80;61.70;;;;;;2308825;55;21804;-70
2022/08/20 10:49:14;;;;;;;2.00;1.08;;;25.80;61.60;;;;;;2306908;55;20931;-70
2022/08/20 10:51:41;;;;;;;2.05;0.90;;;25.90;61.50;;;;;;2315214;55;21067;-72
2022/08/20 10:54:07;;;;;;;2.15;0.85;;;25.90;61.50;;;;;;2419786;53;20966;-72
2022/08/20 10:56:33;;;;;;;2.08;1.08;;;25.90;61.60;;;;;;2413375;54;21006;-71
2022/08/20 10:59:00;;;;;;;2.35;0.88;;;25.90;61.50;;;;;;2310489;55;21495;-71
2022/08/20 11:01:26;;;;;;;2.65;1.02;;;25.90;62.30;;;;;;2320188;54;20951;-73
2022/08/20 11:03:52;;;;;;;2.00;1.00;;;25.90;61.50;;;;;;2306855;55;20995;-71
2022/08/20 11:06:19;;;;;;;1.98;1.02;;;25.90;61.60;;;;;;2310246;55;20970;-70
2022/08/20 11:08:45;;;;;;;1.80;0.82;;;25.90;61.70;;;;;;2548745;54;21663;-71
2022/08/20 11:11:11;;;;;;;1.45;0.70;;;25.90;61.70;;;;;;2310499;55;21492;-73
2022/08/20 11:13:38;;;;;;;1.10;0.60;;;26.00;61.90;;;;;;2365027;54;20982;-71
2022/08/20 11:16:06;;;;;;;2.12;0.82;;;26.00;62.00;;;;;;2343062;54;20978;-71
2022/08/20 11:18:32;;;;;;;1.95;0.82;;;26.00;61.90;;;;;;2308143;55;21018;-73
2022/08/20 11:20:58;;;;;;;1.17;0.65;;;26.00;61.90;;;;;;2314032;55;20959;-72
2022/08/20 11:23:26;;;;;;;1.58;0.73;;;26.00;62.00;;;;;;2309306;55;20943;-71
2022/08/20 11:25:52;;;;;;;1.75;0.88;;;26.10;62.10;;;;;;2309340;55;20939;-71
2022/08/20 11:28:19;;;;;;;1.98;0.80;;;26.10;62.20;;;;;;2308610;55;21018;-71
2022/08/20 11:30:46;;;;;;;1.52;0.80;;;26.10;62.20;;;;;;2324042;54;21023;-71
2022/08/20 11:33:12;;;;;;;1.25;0.65;;;26.10;62.00;;;;;;2331631;54;20939;-73
2022/08/20 11:35:53;;;;;;;1.40;0.77;;;26.20;61.80;;;;;;2308539;55;21279;-73
2022/08/20 11:38:20;;;;;;;1.17;0.55;;;26.20;61.70;;;;;;2307059;55;20941;-71
2022/08/20 11:40:46;;;;;;;2.92;0.80;;;26.20;61.70;;;;;;2384845;54;21428;-73
2022/08/20 11:43:13;;;;;;;1.70;0.80;;;26.20;61.70;;;;;;2332870;54;20954;-71
2022/08/20 11:45:42;;;;;;;1.33;0.55;;;26.30;61.70;;;;;;2303923;55;20955;-70
2022/08/20 11:48:12;;;;;;;1.00;0.47;;;26.30;61.60;;;;;;2307088;55;20932;-73
2022/08/20 11:50:38;;;;;;;2.72;0.65;;;26.30;61.50;;;;;;2308761;55;20948;-73
2022/08/20 11:53:04;;;;;;;1.70;0.75;;;26.30;61.40;;;;;;2314058;55;20923;-71
2022/08/20 11:55:32;;;;;;;1.58;0.85;;;26.40;61.40;;;;;;2315018;55;21035;-72
2022/08/20 11:57:59;;;;;;;1.23;0.60;;;26.40;61.20;;;;;;2425525;54;21337;-71
2022/08/20 12:00:26;;;;;;;1.50;0.70;;;26.40;61.10;;;;;;2312765;55;21131;-73
2022/08/20 12:02:53;;;;;;;1.92;0.70;;;26.40;60.90;;;;;;2310474;55;21481;-70
2022/08/20 12:05:19;;;;;;;0.90;0.47;;;26.40;60.70;;;;;;2346058;54;21829;-71
2022/08/20 12:07:46;;;;;;;2.20;0.90;;;26.30;60.70;;;;;;2299930;54;20943;-71
2022/08/20 12:10:12;;;;;;;1.27;0.50;;;26.30;60.40;;;;;;2416495;54;21002;-73
2022/08/20 12:12:38;;;;;;;0.93;0.50;;;26.30;60.30;;;;;;2309277;55;20951;-74
2022/08/20 12:15:08;;;;;;;1.17;0.57;;;26.30;60.10;;;;;;2415305;53;21011;-73
2022/08/20 12:17:34;;;;;;;1.52;0.60;;;26.30;60.00;;;;;;2311957;55;21791;-71
2022/08/20 12:20:02;;;;;;;1.42;0.60;;;26.30;60.00;;;;;;2295978;55;20955;-73
2022/08/20 12:22:28;;;;;;;1.20;0.60;;;26.30;60.00;;;;;;2310310;55;20998;-70
2022/08/20 12:24:55;;;;;;;1.12;0.50;;;26.30;60.00;;;;;;2309621;55;20971;-71
2022/08/20 12:27:23;;;;;;;1.20;0.60;;;26.20;60.00;;;;;;2309606;55;21539;-71
2022/08/20 12:29:52;;;;;;;1.20;0.52;;;26.20;60.00;;;;;;2309980;55;21083;-71
2022/08/20 12:32:22;;;;;;;1.25;0.50;;;26.20;60.00;;;;;;2309140;55;21090;-76
2022/08/20 12:34:48;;;;;;;1.45;0.70;;;26.20;60.00;;;;;;2310186;55;20983;-71
2022/08/20 12:37:19;;;;;;;1.80;0.65;;;26.20;60.10;;;;;;2315148;55;20968;-71
2022/08/20 12:39:48;;;;;;;2.00;1.00;;;26.20;60.40;;;;;;2312858;55;20987;-71
2022/08/20 12:42:15;;;;;;;1.52;0.68;;;26.20;60.40;;;;;;2318737;54;20988;-76
2022/08/20 12:44:42;;;;;;;2.70;1.00;;;26.10;60.40;;;;;;2307489;55;21031;-74
2022/08/20 12:47:11;;;;;;;2.37;0.93;;;26.10;60.50;;;;;;2357907;54;20946;-70
2022/08/20 12:49:37;;;;;;;1.58;0.80;;;26.10;60.70;;;;;;2326989;54;21871;-71
2022/08/20 12:52:04;;;;;;;1.50;0.75;;;26.10;60.80;;;;;;2371860;53;21043;-71
2022/08/20 12:54:30;;;;;;;1.90;0.80;;;26.10;61.00;;;;;;2343428;53;21588;-70
2022/08/20 12:56:57;;;;;;;1.40;0.70;;;26.10;61.20;;;;;;2343552;53;21251;-70
2022/08/20 12:59:23;;;;;;;1.37;0.68;;;26.10;61.20;;;;;;2581065;52;21249;-70
2022/08/20 13:01:51;;;;;;;1.50;0.70;;;26.10;61.30;;;;;;2559271;53;20930;-73
2022/08/20 13:04:18;;;;;;;1.15;0.52;;;26.20;61.40;;;;;;2314285;53;20919;-73
2022/08/20 13:06:44;;;;;;;1.27;0.60;;;26.20;61.40;;;;;;2554986;53;21256;-71
2022/08/20 13:09:10;;;;;;;1.30;0.50;;;26.30;61.40;;;;;;2314610;53;21249;-73
2022/08/20 13:11:37;;;;;;;1.30;0.50;;;26.30;61.40;;;;;;2332227;53;20954;-71
2022/08/20 13:14:03;;;;;;;0.98;0.50;;;26.40;61.40;;;;;;2562086;53;21344;-71
2022/08/20 13:16:29;;;;;;;3.28;0.60;;;26.40;61.40;;;;;;2314090;53;21446;-69